sensor_id;sensor_type;location;lat;lon;timestamp;P1;durP1;ratioP1;P2;durP2;ratioP2
65751;SDS011;52486;51.098;13.770;2023-07-24T00:02:15;2.75;;;1.33;;
65751;SDS011;52486;51.098;13.770;2023-07-24T00:04:41;1.38;;;1.27;;
65751;SDS011;52486;51.098;13.770;2023-07-24T00:07:07;2.25;;;1.27;;
65751;SDS011;52486;51.098;13.770;2023-07-24T00:09:33;1.52;;;1.40;;
65751;SDS011;52486;51.098;13.770;2023-07-24T00:11:59;2.22;;;1.30;;
65751;SDS011;52486;51.098;13.770;2023-07-24T00:14:25;1.30;;;1.13;;
65751;SDS011;52486;51.098;13.770;2023-07-24T00:16:51;1.48;;;1.30;;
65751;SDS011;52486;51.098;13.770;2023-07-24T00:19:16;1.55;;;1.45;;
65751;SDS011;52486;51.098;13.770;2023-07-24T00:21:42;1.40;;;1.30;;
65751;SDS011;52486;51.098;13.770;2023-07-24T00:24:08;1.65;;;1.55;;
65751;SDS011;52486;51.098;13.770;2023-07-24T00:26:34;1.92;;;1.30;;
65751;SDS011;52486;51.098;13.770;2023-07-24T00:29:00;1.45;;;1.30;;
65751;SDS011;52486;51.098;13.770;2023-07-24T00:31:26;1.83;;;1.40;;
65751;SDS011;52486;51.098;13.770;2023-07-24T00:33:51;2.45;;;1.35;;
65751;SDS011;52486;51.098;13.770;2023-07-24T00:36:18;1.23;;;1.10;;
65751;SDS011;52486;51.098;13.770;2023-07-24T00:38:44;1.40;;;1.30;;
65751;SDS011;52486;51.098;13.770;2023-07-24T00:41:10;1.63;;;1.20;;
65751;SDS011;52486;51.098;13.770;2023-07-24T00:43:36;1.73;;;1.27;;
65751;SDS011;52486;51.098;13.770;2023-07-24T00:46:02;1.48;;;1.20;;
65751;SDS011;52486;51.098;13.770;2023-07-24T00:48:28;1.40;;;1.30;;
65751;SDS011;52486;51.098;13.770;2023-07-24T00:50:54;1.90;;;1.60;;
65751;SDS011;52486;51.098;13.770;2023-07-24T00:53:21;1.50;;;1.38;;
65751;SDS011;52486;51.098;13.770;2023-07-24T00:55:47;1.17;;;1.00;;
65751;SDS011;52486;51.098;13.770;2023-07-24T00:58:14;1.63;;;1.30;;
65751;SDS011;52486;51.098;13.770;2023-07-24T01:00:42;2.08;;;1.27;;
65751;SDS011;52486;51.098;13.770;2023-07-24T01:03:08;2.13;;;1.23;;
65751;SDS011;52486;51.098;13.770;2023-07-24T01:05:34;1.27;;;1.17;;
65751;SDS011;52486;51.098;13.770;2023-07-24T01:08:00;1.27;;;1.17;;
65751;SDS011;52486;51.098;13.770;2023-07-24T01:10:26;1.63;;;1.30;;
65751;SDS011;52486;51.098;13.770;2023-07-24T01:15:38;1.30;;;1.20;;
65751;SDS011;52486;51.098;13.770;2023-07-24T01:18:09;1.45;;;1.25;;
65751;SDS011;52486;51.098;13.770;2023-07-24T01:20:37;1.98;;;1.38;;
65751;SDS011;52486;51.098;13.770;2023-07-24T01:23:21;2.40;;;1.45;;
65751;SDS011;52486;51.098;13.770;2023-07-24T01:26:00;1.30;;;1.20;;
65751;SDS011;52486;51.098;13.770;2023-07-24T01:28:30;1.38;;;1.20;;
65751;SDS011;52486;51.098;13.770;2023-07-24T01:30:56;1.17;;;1.08;;
65751;SDS011;52486;51.098;13.770;2023-07-24T01:33:22;1.35;;;1.25;;
65751;SDS011;52486;51.098;13.770;2023-07-24T01:35:49;2.10;;;1.80;;
65751;SDS011;52486;51.098;13.770;2023-07-24T01:38:19;1.33;;;1.20;;
65751;SDS011;52486;51.098;13.770;2023-07-24T01:40:45;1.27;;;1.17;;
65751;SDS011;52486;51.098;13.770;2023-07-24T01:43:11;1.45;;;1.35;;
65751;SDS011;52486;51.098;13.770;2023-07-24T01:45:37;1.85;;;1.50;;
65751;SDS011;52486;51.098;13.770;2023-07-24T01:48:03;1.40;;;1.30;;
65751;SDS011;52486;51.098;13.770;2023-07-24T01:50:30;1.25;;;1.15;;
65751;SDS011;52486;51.098;13.770;2023-07-24T01:52:56;1.70;;;1.30;;
65751;SDS011;52486;51.098;13.770;2023-07-24T01:55:22;1.35;;;1.25;;
65751;SDS011;52486;51.098;13.770;2023-07-24T01:57:48;1.58;;;1.30;;
65751;SDS011;52486;51.098;13.770;2023-07-24T02:00:14;1.38;;;1.27;;
65751;SDS011;52486;51.098;13.770;2023-07-24T02:02:40;1.15;;;1.05;;
65751;SDS011;52486;51.098;13.770;2023-07-24T02:05:06;1.50;;;1.40;;
65751;SDS011;52486;51.098;13.770;2023-07-24T02:07:32;1.40;;;1.30;;
65751;SDS011;52486;51.098;13.770;2023-07-24T02:09:58;1.42;;;1.33;;
65751;SDS011;52486;51.098;13.770;2023-07-24T02:12:24;1.65;;;1.40;;
65751;SDS011;52486;51.098;13.770;2023-07-24T02:14:50;1.50;;;1.40;;
65751;SDS011;52486;51.098;13.770;2023-07-24T02:17:16;1.65;;;1.55;;
65751;SDS011;52486;51.098;13.770;2023-07-24T02:19:43;2.13;;;1.40;;
65751;SDS011;52486;51.098;13.770;2023-07-24T02:22:09;1.27;;;1.17;;
65751;SDS011;52486;51.098;13.770;2023-07-24T02:24:35;1.50;;;1.40;;
65751;SDS011;52486;51.098;13.770;2023-07-24T02:27:01;1.58;;;1.38;;
65751;SDS011;52486;51.098;13.770;2023-07-24T02:29:27;1.40;;;1.30;;
65751;SDS011;52486;51.098;13.770;2023-07-24T02:31:54;1.77;;;1.55;;
65751;SDS011;52486;51.098;13.770;2023-07-24T02:34:20;1.45;;;1.35;;
65751;SDS011;52486;51.098;13.770;2023-07-24T02:36:51;1.35;;;1.13;;
65751;SDS011;52486;51.098;13.770;2023-07-24T02:39:18;1.70;;;1.30;;
65751;SDS011;52486;51.098;13.770;2023-07-24T02:41:44;2.05;;;1.40;;
65751;SDS011;52486;51.098;13.770;2023-07-24T02:44:12;1.45;;;1.30;;
65751;SDS011;52486;51.098;13.770;2023-07-24T02:46:37;1.42;;;1.33;;
65751;SDS011;52486;51.098;13.770;2023-07-24T02:49:03;1.48;;;1.30;;
65751;SDS011;52486;51.098;13.770;2023-07-24T02:51:30;1.40;;;1.30;;
65751;SDS011;52486;51.098;13.770;2023-07-24T02:53:56;1.75;;;1.40;;
65751;SDS011;52486;51.098;13.770;2023-07-24T02:56:22;1.42;;;1.33;;
65751;SDS011;52486;51.098;13.770;2023-07-24T02:58:48;1.65;;;1.40;;
65751;SDS011;52486;51.098;13.770;2023-07-24T03:01:14;1.30;;;1.20;;
65751;SDS011;52486;51.098;13.770;2023-07-24T03:03:40;2.75;;;1.52;;
65751;SDS011;52486;51.098;13.770;2023-07-24T03:06:06;1.60;;;1.50;;
65751;SDS011;52486;51.098;13.770;2023-07-24T03:08:32;1.65;;;1.35;;
65751;SDS011;52486;51.098;13.770;2023-07-24T03:10:59;1.50;;;1.40;;
65751;SDS011;52486;51.098;13.770;2023-07-24T03:13:25;2.45;;;1.48;;
65751;SDS011;52486;51.098;13.770;2023-07-24T03:15:54;2.20;;;1.60;;
65751;SDS011;52486;51.098;13.770;2023-07-24T03:18:21;1.65;;;1.50;;
65751;SDS011;52486;51.098;13.770;2023-07-24T03:20:47;1.70;;;1.38;;
65751;SDS011;52486;51.098;13.770;2023-07-24T03:23:13;1.75;;;1.58;;
65751;SDS011;52486;51.098;13.770;2023-07-24T03:25:39;1.77;;;1.23;;
65751;SDS011;52486;51.098;13.770;2023-07-24T03:28:05;1.50;;;1.40;;
65751;SDS011;52486;51.098;13.770;2023-07-24T03:30:31;1.40;;;1.30;;
65751;SDS011;52486;51.098;13.770;2023-07-24T03:32:57;1.75;;;1.20;;
65751;SDS011;52486;51.098;13.770;2023-07-24T03:35:23;1.90;;;1.30;;
65751;SDS011;52486;51.098;13.770;2023-07-24T03:37:49;2.08;;;1.40;;
65751;SDS011;52486;51.098;13.770;2023-07-24T03:40:15;1.85;;;1.35;;
65751;SDS011;52486;51.098;13.770;2023-07-24T03:42:41;2.03;;;1.60;;
65751;SDS011;52486;51.098;13.770;2023-07-24T03:45:07;1.70;;;1.50;;
65751;SDS011;52486;51.098;13.770;2023-07-24T03:47:33;2.30;;;1.45;;
65751;SDS011;52486;51.098;13.770;2023-07-24T03:49:59;1.83;;;1.73;;
65751;SDS011;52486;51.098;13.770;2023-07-24T03:52:25;1.50;;;1.40;;
65751;SDS011;52486;51.098;13.770;2023-07-24T03:54:52;2.55;;;1.80;;
65751;SDS011;52486;51.098;13.770;2023-07-24T03:57:18;1.73;;;1.63;;
65751;SDS011;52486;51.098;13.770;2023-07-24T03:59:44;2.38;;;1.63;;
65751;SDS011;52486;51.098;13.770;2023-07-24T04:02:10;1.80;;;1.50;;
65751;SDS011;52486;51.098;13.770;2023-07-24T04:04:36;1.98;;;1.58;;
65751;SDS011;52486;51.098;13.770;2023-07-24T04:07:02;1.30;;;1.20;;
65751;SDS011;52486;51.098;13.770;2023-07-24T04:09:28;2.00;;;1.80;;
65751;SDS011;52486;51.098;13.770;2023-07-24T04:11:54;1.60;;;1.50;;
65751;SDS011;52486;51.098;13.770;2023-07-24T04:14:20;1.77;;;1.50;;
65751;SDS011;52486;51.098;13.770;2023-07-24T04:16:46;3.13;;;1.40;;
65751;SDS011;52486;51.098;13.770;2023-07-24T04:19:12;1.85;;;1.65;;
65751;SDS011;52486;51.098;13.770;2023-07-24T04:21:38;1.83;;;1.55;;
65751;SDS011;52486;51.098;13.770;2023-07-24T04:24:04;2.33;;;1.80;;
65751;SDS011;52486;51.098;13.770;2023-07-24T04:26:30;2.13;;;1.55;;
65751;SDS011;52486;51.098;13.770;2023-07-24T04:28:56;1.98;;;1.77;;
65751;SDS011;52486;51.098;13.770;2023-07-24T04:31:22;1.85;;;1.60;;
65751;SDS011;52486;51.098;13.770;2023-07-24T04:33:48;2.92;;;1.83;;
65751;SDS011;52486;51.098;13.770;2023-07-24T04:36:14;2.53;;;1.63;;
65751;SDS011;52486;51.098;13.770;2023-07-24T04:38:39;1.92;;;1.45;;
65751;SDS011;52486;51.098;13.770;2023-07-24T04:41:05;2.03;;;1.80;;
65751;SDS011;52486;51.098;13.770;2023-07-24T04:43:31;2.00;;;1.85;;
65751;SDS011;52486;51.098;13.770;2023-07-24T04:45:57;1.80;;;1.65;;
65751;SDS011;52486;51.098;13.770;2023-07-24T04:48:23;3.10;;;1.80;;
65751;SDS011;52486;51.098;13.770;2023-07-24T04:50:55;2.17;;;1.95;;
65751;SDS011;52486;51.098;13.770;2023-07-24T04:53:21;2.28;;;1.70;;
65751;SDS011;52486;51.098;13.770;2023-07-24T04:55:47;2.33;;;1.60;;
65751;SDS011;52486;51.098;13.770;2023-07-24T04:58:13;2.67;;;1.85;;
65751;SDS011;52486;51.098;13.770;2023-07-24T05:00:39;2.03;;;1.60;;
65751;SDS011;52486;51.098;13.770;2023-07-24T05:03:05;2.30;;;1.70;;
65751;SDS011;52486;51.098;13.770;2023-07-24T05:05:36;2.83;;;1.65;;
65751;SDS011;52486;51.098;13.770;2023-07-24T05:08:02;2.03;;;1.65;;
65751;SDS011;52486;51.098;13.770;2023-07-24T05:10:28;2.45;;;1.90;;
65751;SDS011;52486;51.098;13.770;2023-07-24T05:12:54;1.73;;;1.63;;
65751;SDS011;52486;51.098;13.770;2023-07-24T05:15:21;1.73;;;1.58;;
65751;SDS011;52486;51.098;13.770;2023-07-24T05:17:47;2.45;;;1.73;;
65751;SDS011;52486;51.098;13.770;2023-07-24T05:20:13;2.33;;;1.65;;
65751;SDS011;52486;51.098;13.770;2023-07-24T05:22:39;2.42;;;1.73;;
65751;SDS011;52486;51.098;13.770;2023-07-24T05:25:05;2.08;;;1.77;;
65751;SDS011;52486;51.098;13.770;2023-07-24T05:27:31;2.08;;;1.63;;
65751;SDS011;52486;51.098;13.770;2023-07-24T05:29:57;1.88;;;1.70;;
65751;SDS011;52486;51.098;13.770;2023-07-24T05:32:23;2.58;;;1.60;;
65751;SDS011;52486;51.098;13.770;2023-07-24T05:34:49;3.40;;;1.90;;
65751;SDS011;52486;51.098;13.770;2023-07-24T05:37:15;2.90;;;1.80;;
65751;SDS011;52486;51.098;13.770;2023-07-24T05:39:41;2.35;;;1.85;;
65751;SDS011;52486;51.098;13.770;2023-07-24T05:42:07;2.10;;;1.90;;
65751;SDS011;52486;51.098;13.770;2023-07-24T05:44:33;2.35;;;1.92;;
65751;SDS011;52486;51.098;13.770;2023-07-24T05:47:02;2.00;;;1.80;;
65751;SDS011;52486;51.098;13.770;2023-07-24T05:49:28;2.47;;;1.80;;
65751;SDS011;52486;51.098;13.770;2023-07-24T05:51:54;1.92;;;1.52;;
65751;SDS011;52486;51.098;13.770;2023-07-24T05:54:21;3.67;;;1.75;;
65751;SDS011;52486;51.098;13.770;2023-07-24T05:56:48;2.40;;;2.00;;
65751;SDS011;52486;51.098;13.770;2023-07-24T05:59:14;2.28;;;2.00;;
65751;SDS011;52486;51.098;13.770;2023-07-24T06:01:40;7.50;;;2.60;;
65751;SDS011;52486;51.098;13.770;2023-07-24T06:04:06;5.55;;;2.72;;
65751;SDS011;52486;51.098;13.770;2023-07-24T06:06:32;6.18;;;2.83;;
65751;SDS011;52486;51.098;13.770;2023-07-24T06:08:58;5.90;;;2.70;;
65751;SDS011;52486;51.098;13.770;2023-07-24T06:11:24;7.38;;;2.78;;
65751;SDS011;52486;51.098;13.770;2023-07-24T06:13:52;4.72;;;2.70;;
65751;SDS011;52486;51.098;13.770;2023-07-24T06:16:18;5.60;;;2.40;;
65751;SDS011;52486;51.098;13.770;2023-07-24T06:18:44;3.88;;;2.55;;
65751;SDS011;52486;51.098;13.770;2023-07-24T06:21:10;5.90;;;2.33;;
65751;SDS011;52486;51.098;13.770;2023-07-24T06:23:36;3.70;;;2.65;;
65751;SDS011;52486;51.098;13.770;2023-07-24T06:26:02;5.97;;;2.50;;
65751;SDS011;52486;51.098;13.770;2023-07-24T06:28:28;4.35;;;2.63;;
65751;SDS011;52486;51.098;13.770;2023-07-24T06:30:54;4.20;;;2.65;;
65751;SDS011;52486;51.098;13.770;2023-07-24T06:33:20;6.90;;;2.85;;
65751;SDS011;52486;51.098;13.770;2023-07-24T06:35:50;12.48;;;2.95;;
65751;SDS011;52486;51.098;13.770;2023-07-24T06:38:16;6.85;;;2.85;;
65751;SDS011;52486;51.098;13.770;2023-07-24T06:40:42;7.97;;;3.15;;
65751;SDS011;52486;51.098;13.770;2023-07-24T06:43:08;8.18;;;2.97;;
65751;SDS011;52486;51.098;13.770;2023-07-24T06:45:34;10.07;;;2.90;;
65751;SDS011;52486;51.098;13.770;2023-07-24T06:48:00;7.45;;;2.90;;
65751;SDS011;52486;51.098;13.770;2023-07-24T06:50:26;14.25;;;3.97;;
65751;SDS011;52486;51.098;13.770;2023-07-24T06:52:52;5.53;;;3.17;;
65751;SDS011;52486;51.098;13.770;2023-07-24T06:55:19;4.38;;;3.20;;
65751;SDS011;52486;51.098;13.770;2023-07-24T06:57:45;9.85;;;3.30;;
65751;SDS011;52486;51.098;13.770;2023-07-24T07:00:11;6.32;;;3.03;;
65751;SDS011;52486;51.098;13.770;2023-07-24T07:02:37;8.00;;;3.08;;
65751;SDS011;52486;51.098;13.770;2023-07-24T07:05:04;11.52;;;3.42;;
65751;SDS011;52486;51.098;13.770;2023-07-24T07:07:30;6.07;;;3.33;;
65751;SDS011;52486;51.098;13.770;2023-07-24T07:09:56;7.03;;;3.65;;
65751;SDS011;52486;51.098;13.770;2023-07-24T07:12:22;4.30;;;3.17;;
65751;SDS011;52486;51.098;13.770;2023-07-24T07:14:48;7.93;;;3.53;;
65751;SDS011;52486;51.098;13.770;2023-07-24T07:17:14;3.83;;;3.05;;
65751;SDS011;52486;51.098;13.770;2023-07-24T07:19:40;4.57;;;3.13;;
65751;SDS011;52486;51.098;13.770;2023-07-24T07:22:06;5.10;;;3.13;;
65751;SDS011;52486;51.098;13.770;2023-07-24T07:24:32;4.72;;;2.78;;
65751;SDS011;52486;51.098;13.770;2023-07-24T07:26:58;5.82;;;3.13;;
65751;SDS011;52486;51.098;13.770;2023-07-24T07:29:24;6.53;;;2.85;;
65751;SDS011;52486;51.098;13.770;2023-07-24T07:31:50;5.50;;;3.00;;
65751;SDS011;52486;51.098;13.770;2023-07-24T07:34:16;5.47;;;3.33;;
65751;SDS011;52486;51.098;13.770;2023-07-24T07:36:42;5.43;;;3.05;;
65751;SDS011;52486;51.098;13.770;2023-07-24T07:39:08;3.63;;;2.97;;
65751;SDS011;52486;51.098;13.770;2023-07-24T07:41:34;11.20;;;3.60;;
65751;SDS011;52486;51.098;13.770;2023-07-24T07:44:00;5.22;;;2.90;;
65751;SDS011;52486;51.098;13.770;2023-07-24T07:46:26;5.63;;;3.30;;
65751;SDS011;52486;51.098;13.770;2023-07-24T07:48:52;4.72;;;3.25;;
65751;SDS011;52486;51.098;13.770;2023-07-24T07:51:18;7.75;;;3.30;;
65751;SDS011;52486;51.098;13.770;2023-07-24T07:53:44;4.82;;;2.95;;
65751;SDS011;52486;51.098;13.770;2023-07-24T07:56:10;4.80;;;3.05;;
65751;SDS011;52486;51.098;13.770;2023-07-24T07:58:36;4.35;;;3.03;;
65751;SDS011;52486;51.098;13.770;2023-07-24T08:01:05;6.05;;;3.10;;
65751;SDS011;52486;51.098;13.770;2023-07-24T08:03:31;3.22;;;2.90;;
65751;SDS011;52486;51.098;13.770;2023-07-24T08:05:58;3.88;;;3.00;;
65751;SDS011;52486;51.098;13.770;2023-07-24T08:08:24;4.72;;;3.20;;
65751;SDS011;52486;51.098;13.770;2023-07-24T08:10:50;3.28;;;2.90;;
65751;SDS011;52486;51.098;13.770;2023-07-24T08:13:16;8.10;;;3.10;;
65751;SDS011;52486;51.098;13.770;2023-07-24T08:15:41;4.60;;;3.40;;
65751;SDS011;52486;51.098;13.770;2023-07-24T08:18:07;3.50;;;3.10;;
65751;SDS011;52486;51.098;13.770;2023-07-24T08:20:36;4.90;;;2.97;;
65751;SDS011;52486;51.098;13.770;2023-07-24T08:23:02;3.20;;;2.90;;
65751;SDS011;52486;51.098;13.770;2023-07-24T08:25:28;5.00;;;3.10;;
65751;SDS011;52486;51.098;13.770;2023-07-24T08:27:55;3.63;;;3.15;;
65751;SDS011;52486;51.098;13.770;2023-07-24T08:30:20;6.28;;;3.10;;
65751;SDS011;52486;51.098;13.770;2023-07-24T08:32:46;3.22;;;2.92;;
65751;SDS011;52486;51.098;13.770;2023-07-24T08:35:15;5.30;;;3.50;;
65751;SDS011;52486;51.098;13.770;2023-07-24T08:37:44;6.60;;;3.28;;
65751;SDS011;52486;51.098;13.770;2023-07-24T08:40:10;4.95;;;2.92;;
65751;SDS011;52486;51.098;13.770;2023-07-24T08:42:39;4.25;;;2.90;;
65751;SDS011;52486;51.098;13.770;2023-07-24T08:45:11;7.03;;;3.22;;
65751;SDS011;52486;51.098;13.770;2023-07-24T08:47:40;5.53;;;3.38;;
65751;SDS011;52486;51.098;13.770;2023-07-24T08:50:08;5.65;;;3.30;;
65751;SDS011;52486;51.098;13.770;2023-07-24T08:52:36;3.60;;;3.22;;
65751;SDS011;52486;51.098;13.770;2023-07-24T08:55:02;4.00;;;3.08;;
65751;SDS011;52486;51.098;13.770;2023-07-24T08:57:29;7.78;;;3.42;;
65751;SDS011;52486;51.098;13.770;2023-07-24T08:59:55;5.30;;;3.78;;
65751;SDS011;52486;51.098;13.770;2023-07-24T09:02:21;12.05;;;3.80;;
65751;SDS011;52486;51.098;13.770;2023-07-24T09:04:47;7.32;;;3.83;;
65751;SDS011;52486;51.098;13.770;2023-07-24T09:07:13;6.65;;;3.90;;
65751;SDS011;52486;51.098;13.770;2023-07-24T09:09:39;4.38;;;3.70;;
65751;SDS011;52486;51.098;13.770;2023-07-24T09:12:05;6.93;;;3.75;;
65751;SDS011;52486;51.098;13.770;2023-07-24T09:14:31;5.70;;;3.72;;
65751;SDS011;52486;51.098;13.770;2023-07-24T09:17:08;6.80;;;4.10;;
65751;SDS011;52486;51.098;13.770;2023-07-24T09:19:35;7.35;;;4.07;;
65751;SDS011;52486;51.098;13.770;2023-07-24T09:24:37;5.43;;;4.03;;
65751;SDS011;52486;51.098;13.770;2023-07-24T09:27:07;4.50;;;3.88;;
65751;SDS011;52486;51.098;13.770;2023-07-24T09:29:33;6.75;;;3.75;;
65751;SDS011;52486;51.098;13.770;2023-07-24T09:32:00;8.27;;;3.88;;
65751;SDS011;52486;51.098;13.770;2023-07-24T09:34:26;7.72;;;3.97;;
65751;SDS011;52486;51.098;13.770;2023-07-24T09:36:52;5.25;;;4.55;;
65751;SDS011;52486;51.098;13.770;2023-07-24T09:39:27;11.05;;;4.18;;
65751;SDS011;52486;51.098;13.770;2023-07-24T09:41:53;7.25;;;4.03;;
65751;SDS011;52486;51.098;13.770;2023-07-24T09:44:19;7.78;;;4.03;;
65751;SDS011;52486;51.098;13.770;2023-07-24T09:46:46;6.18;;;3.70;;
65751;SDS011;52486;51.098;13.770;2023-07-24T09:49:12;7.03;;;4.00;;
65751;SDS011;52486;51.098;13.770;2023-07-24T09:51:38;8.10;;;4.18;;
65751;SDS011;52486;51.098;13.770;2023-07-24T09:56:44;6.68;;;3.80;;
65751;SDS011;52486;51.098;13.770;2023-07-24T09:59:10;9.20;;;4.55;;
65751;SDS011;52486;51.098;13.770;2023-07-24T10:01:38;7.13;;;4.53;;
65751;SDS011;52486;51.098;13.770;2023-07-24T10:04:04;6.53;;;4.63;;
65751;SDS011;52486;51.098;13.770;2023-07-24T10:06:30;7.55;;;4.78;;
65751;SDS011;52486;51.098;13.770;2023-07-24T10:08:56;5.78;;;4.35;;
65751;SDS011;52486;51.098;13.770;2023-07-24T10:11:23;7.88;;;4.65;;
65751;SDS011;52486;51.098;13.770;2023-07-24T10:13:49;7.13;;;4.47;;
65751;SDS011;52486;51.098;13.770;2023-07-24T10:16:15;6.28;;;4.75;;
65751;SDS011;52486;51.098;13.770;2023-07-24T10:18:43;8.20;;;4.55;;
65751;SDS011;52486;51.098;13.770;2023-07-24T10:21:10;6.95;;;4.00;;
65751;SDS011;52486;51.098;13.770;2023-07-24T10:23:42;5.53;;;4.13;;
65751;SDS011;52486;51.098;13.770;2023-07-24T10:26:11;8.27;;;4.05;;
65751;SDS011;52486;51.098;13.770;2023-07-24T10:28:38;7.07;;;4.32;;
65751;SDS011;52486;51.098;13.770;2023-07-24T10:31:19;12.93;;;4.80;;
65751;SDS011;52486;51.098;13.770;2023-07-24T10:33:45;11.07;;;5.00;;
65751;SDS011;52486;51.098;13.770;2023-07-24T10:36:12;7.28;;;4.78;;
65751;SDS011;52486;51.098;13.770;2023-07-24T10:38:42;7.13;;;4.40;;
65751;SDS011;52486;51.098;13.770;2023-07-24T10:41:09;7.07;;;4.10;;
65751;SDS011;52486;51.098;13.770;2023-07-24T10:43:45;5.78;;;4.18;;
65751;SDS011;52486;51.098;13.770;2023-07-24T10:46:12;6.63;;;4.20;;
65751;SDS011;52486;51.098;13.770;2023-07-24T10:48:41;5.65;;;3.95;;
65751;SDS011;52486;51.098;13.770;2023-07-24T10:51:13;8.65;;;4.30;;
65751;SDS011;52486;51.098;13.770;2023-07-24T10:53:49;5.80;;;4.43;;
65751;SDS011;52486;51.098;13.770;2023-07-24T10:56:15;5.72;;;4.20;;
65751;SDS011;52486;51.098;13.770;2023-07-24T10:58:42;6.18;;;4.18;;
65751;SDS011;52486;51.098;13.770;2023-07-24T11:01:08;6.72;;;4.20;;
65751;SDS011;52486;51.098;13.770;2023-07-24T11:03:39;5.55;;;3.72;;
65751;SDS011;52486;51.098;13.770;2023-07-24T11:06:11;5.60;;;4.10;;
65751;SDS011;52486;51.098;13.770;2023-07-24T11:08:39;8.38;;;4.13;;
65751;SDS011;52486;51.098;13.770;2023-07-24T11:11:05;6.53;;;4.05;;
65751;SDS011;52486;51.098;13.770;2023-07-24T11:13:31;7.97;;;3.95;;
65751;SDS011;52486;51.098;13.770;2023-07-24T11:16:06;8.88;;;4.13;;
65751;SDS011;52486;51.098;13.770;2023-07-24T11:18:43;5.93;;;4.03;;
65751;SDS011;52486;51.098;13.770;2023-07-24T11:21:13;7.28;;;4.10;;
65751;SDS011;52486;51.098;13.770;2023-07-24T11:23:46;5.78;;;4.07;;
65751;SDS011;52486;51.098;13.770;2023-07-24T11:26:13;5.72;;;3.88;;
65751;SDS011;52486;51.098;13.770;2023-07-24T11:28:40;5.60;;;3.97;;
65751;SDS011;52486;51.098;13.770;2023-07-24T11:31:06;5.25;;;3.78;;
65751;SDS011;52486;51.098;13.770;2023-07-24T11:33:32;6.72;;;3.83;;
65751;SDS011;52486;51.098;13.770;2023-07-24T11:35:59;5.85;;;3.60;;
65751;SDS011;52486;51.098;13.770;2023-07-24T11:38:25;7.55;;;3.83;;
65751;SDS011;52486;51.098;13.770;2023-07-24T11:40:53;5.97;;;3.50;;
65751;SDS011;52486;51.098;13.770;2023-07-24T11:43:21;5.78;;;3.53;;
65751;SDS011;52486;51.098;13.770;2023-07-24T11:45:48;4.15;;;3.03;;
65751;SDS011;52486;51.098;13.770;2023-07-24T11:48:17;5.88;;;3.28;;
65751;SDS011;52486;51.098;13.770;2023-07-24T11:50:45;7.88;;;3.45;;
65751;SDS011;52486;51.098;13.770;2023-07-24T11:56:12;7.22;;;3.67;;
65751;SDS011;52486;51.098;13.770;2023-07-24T11:58:39;5.05;;;3.05;;
65751;SDS011;52486;51.098;13.770;2023-07-24T12:01:05;5.03;;;3.00;;
65751;SDS011;52486;51.098;13.770;2023-07-24T12:03:31;6.47;;;3.42;;
65751;SDS011;52486;51.098;13.770;2023-07-24T12:05:57;4.38;;;3.30;;
65751;SDS011;52486;51.098;13.770;2023-07-24T12:08:30;5.25;;;4.07;;
65751;SDS011;52486;51.098;13.770;2023-07-24T12:11:00;6.32;;;4.60;;
65751;SDS011;52486;51.098;13.770;2023-07-24T12:13:26;7.07;;;4.78;;
65751;SDS011;52486;51.098;13.770;2023-07-24T12:15:52;9.25;;;5.47;;
65751;SDS011;52486;51.098;13.770;2023-07-24T12:18:18;14.35;;;5.22;;
65751;SDS011;52486;51.098;13.770;2023-07-24T12:20:44;8.05;;;4.80;;
65751;SDS011;52486;51.098;13.770;2023-07-24T12:23:10;11.32;;;4.80;;
65751;SDS011;52486;51.098;13.770;2023-07-24T12:25:36;6.70;;;4.65;;
65751;SDS011;52486;51.098;13.770;2023-07-24T12:28:02;11.95;;;5.05;;
65751;SDS011;52486;51.098;13.770;2023-07-24T12:30:29;9.10;;;5.93;;
65751;SDS011;52486;51.098;13.770;2023-07-24T12:32:55;10.30;;;5.13;;
65751;SDS011;52486;51.098;13.770;2023-07-24T12:35:21;8.45;;;5.18;;
65751;SDS011;52486;51.098;13.770;2023-07-24T12:37:46;8.27;;;5.38;;
65751;SDS011;52486;51.098;13.770;2023-07-24T12:40:13;10.43;;;4.55;;
65751;SDS011;52486;51.098;13.770;2023-07-24T12:42:39;6.10;;;4.82;;
65751;SDS011;52486;51.098;13.770;2023-07-24T12:45:05;9.88;;;5.65;;
65751;SDS011;52486;51.098;13.770;2023-07-24T12:47:31;8.10;;;4.75;;
65751;SDS011;52486;51.098;13.770;2023-07-24T12:49:57;6.82;;;4.82;;
65751;SDS011;52486;51.098;13.770;2023-07-24T12:52:25;9.43;;;5.43;;
65751;SDS011;52486;51.098;13.770;2023-07-24T12:55:01;16.00;;;5.18;;
65751;SDS011;52486;51.098;13.770;2023-07-24T12:57:27;8.98;;;4.45;;
65751;SDS011;52486;51.098;13.770;2023-07-24T12:59:53;11.48;;;5.20;;
65751;SDS011;52486;51.098;13.770;2023-07-24T13:02:20;8.13;;;4.78;;
65751;SDS011;52486;51.098;13.770;2023-07-24T13:04:46;9.35;;;4.88;;
65751;SDS011;52486;51.098;13.770;2023-07-24T13:07:13;7.78;;;4.65;;
65751;SDS011;52486;51.098;13.770;2023-07-24T13:09:39;10.02;;;5.10;;
65751;SDS011;52486;51.098;13.770;2023-07-24T13:12:05;9.07;;;5.10;;
65751;SDS011;52486;51.098;13.770;2023-07-24T13:14:31;9.15;;;5.15;;
65751;SDS011;52486;51.098;13.770;2023-07-24T13:16:57;7.57;;;5.20;;
65751;SDS011;52486;51.098;13.770;2023-07-24T13:19:24;9.13;;;5.13;;
65751;SDS011;52486;51.098;13.770;2023-07-24T13:21:50;8.23;;;4.80;;
65751;SDS011;52486;51.098;13.770;2023-07-24T13:24:17;5.90;;;4.50;;
65751;SDS011;52486;51.098;13.770;2023-07-24T13:26:43;8.98;;;4.85;;
65751;SDS011;52486;51.098;13.770;2023-07-24T13:29:09;11.00;;;4.90;;
65751;SDS011;52486;51.098;13.770;2023-07-24T13:31:35;7.95;;;4.95;;
65751;SDS011;52486;51.098;13.770;2023-07-24T13:34:02;6.57;;;4.85;;
65751;SDS011;52486;51.098;13.770;2023-07-24T13:36:28;11.52;;;4.68;;
65751;SDS011;52486;51.098;13.770;2023-07-24T13:38:54;7.20;;;4.78;;
65751;SDS011;52486;51.098;13.770;2023-07-24T13:41:20;8.32;;;5.22;;
65751;SDS011;52486;51.098;13.770;2023-07-24T13:43:47;7.47;;;5.00;;
65751;SDS011;52486;51.098;13.770;2023-07-24T13:46:13;7.03;;;4.72;;
65751;SDS011;52486;51.098;13.770;2023-07-24T13:48:39;10.02;;;4.57;;
65751;SDS011;52486;51.098;13.770;2023-07-24T13:51:05;6.63;;;5.22;;
65751;SDS011;52486;51.098;13.770;2023-07-24T13:53:31;6.60;;;4.70;;
65751;SDS011;52486;51.098;13.770;2023-07-24T13:55:57;8.40;;;5.10;;
65751;SDS011;52486;51.098;13.770;2023-07-24T13:58:23;7.18;;;4.80;;
65751;SDS011;52486;51.098;13.770;2023-07-24T14:00:49;8.80;;;4.75;;
65751;SDS011;52486;51.098;13.770;2023-07-24T14:03:15;9.25;;;4.90;;
65751;SDS011;52486;51.098;13.770;2023-07-24T14:05:41;6.93;;;4.63;;
65751;SDS011;52486;51.098;13.770;2023-07-24T14:08:07;5.82;;;4.65;;
65751;SDS011;52486;51.098;13.770;2023-07-24T14:10:34;7.40;;;5.35;;
65751;SDS011;52486;51.098;13.770;2023-07-24T14:13:00;8.15;;;5.13;;
65751;SDS011;52486;51.098;13.770;2023-07-24T14:15:26;8.40;;;4.70;;
65751;SDS011;52486;51.098;13.770;2023-07-24T14:17:52;6.95;;;4.50;;
65751;SDS011;52486;51.098;13.770;2023-07-24T14:20:18;5.60;;;4.55;;
65751;SDS011;52486;51.098;13.770;2023-07-24T14:22:44;5.18;;;4.25;;
65751;SDS011;52486;51.098;13.770;2023-07-24T14:25:10;4.85;;;3.67;;
65751;SDS011;52486;51.098;13.770;2023-07-24T14:27:37;5.60;;;3.92;;
65751;SDS011;52486;51.098;13.770;2023-07-24T14:30:03;3.80;;;3.22;;
65751;SDS011;52486;51.098;13.770;2023-07-24T14:32:30;4.32;;;3.35;;
65751;SDS011;52486;51.098;13.770;2023-07-24T14:34:56;6.05;;;3.25;;
65751;SDS011;52486;51.098;13.770;2023-07-24T14:37:22;8.98;;;3.47;;
65751;SDS011;52486;51.098;13.770;2023-07-24T14:39:49;3.72;;;3.03;;
65751;SDS011;52486;51.098;13.770;2023-07-24T14:42:16;5.18;;;3.63;;